Latest Weather Observations for Mount Hotham Airport

IDV60801

Issued at 4:05 pm EDT Thursday 27 November 2014 (issued every 30 minutes, with the page automatically refreshed every 10 minutes)

About weather observations | Map of weather stations | Latest weather observations for VIC | Other Formats
Station Details ID: 083055 Name: MOUNT HOTHAM AIRPORT Lat: -37.05 Lon: 147.33 Height: 1295.4 m
Data from the previous 72 hours. | See also: Recent months at Mount Hotham Airport
Date/Time
EDT
Temp
°C
App
Temp
°C
Dew
Point
Rel
Hum
%
Delta-T
°C
Wind Press
QNH
hPa
Press
MSL
hPa
Rain
since 9 am
mm
Dir
 
Spd
km/h
Gust
km/h
Spd
kts
Gust
kts
27/04:00pm 16.5 12.3 3.9 43 6.3 SSE 15 24 8 13 1023.9 - 0.0
27/03:30pm 17.2 12.5 5.2 45 6.2 SE 19 26 10 14 1023.8 - 0.0
27/03:00pm 16.5 12.7 3.9 43 6.3 SE 13 24 7 13 1023.9 1023.2 0.0
27/02:30pm 16.3 12.9 4.0 44 6.1 E 11 20 6 11 1024.0 - 0.0
27/02:00pm 16.5 13.2 4.5 45 6.1 E 11 22 6 12 1024.1 - 0.0
27/01:30pm 16.3 12.9 -0.8 31 7.7 S 7 17 4 9 1024.4 - 0.0
27/01:00pm 16.1 11.9 -1.0 31 7.7 S 11 20 6 11 1024.2 - 0.0
27/12:30pm 15.9 12.1 -0.8 32 7.5 S 9 17 5 9 1024.4 - 0.0
27/12:00pm 15.7 11.8 -1.4 31 7.6 SSW 9 19 5 10 1024.5 1023.8 0.0
27/11:30am 15.5 12.0 -1.1 32 7.4 SSW 7 19 4 10 1024.5 - 0.0
27/11:00am 14.0 10.3 -3.3 30 7.3 SW 7 17 4 9 1024.4 - 0.0
27/10:30am 13.4 9.4 -2.1 34 6.7 SSW 9 15 5 8 1024.4 - 0.0
27/10:00am 13.2 10.0 -0.4 39 6.0 E 6 9 3 5 1024.6 - 0.0
27/09:30am 12.2 9.1 1.5 48 4.9 SSE 7 13 4 7 1024.5 - 0.0
27/09:00am 11.0 8.5 4.9 66 3.0 SE 7 11 4 6 1024.5 1023.8 1.0
27/08:30am 10.4 8.0 4.3 66 2.9 ESE 6 9 3 5 1024.2 - 1.0
27/08:00am 9.0 7.7 6.1 82 1.4 SE 2 4 1 2 1023.8 - 1.0
27/07:30am 5.9 4.6 5.8 99 0.0 N 2 4 1 2 1023.5 - 1.0
27/07:04am 2.8 -0.5 2.7 99 0.0 NW 9 13 5 7 1023.2 - 1.0
27/07:00am 2.5 -0.8 2.4 99 0.0 NW 9 13 5 7 1023.2 - 1.0
27/06:30am 1.4 -1.5 1.3 99 0.0 W 6 7 3 4 1023.2 - 1.0
27/06:06am 1.4 -1.5 1.3 99 0.0 WSW 6 7 3 4 1023.0 - 1.0
27/06:00am 1.3 -1.3 1.2 99 0.0 W 4 7 2 4 1023.0 1022.3 1.0
27/05:34am 1.7 -0.4 1.6 99 0.0 W 2 6 1 3 1022.8 - 1.0
27/05:30am 2.2 0.2 2.1 99 0.0 W 2 6 1 3 1022.8 - 1.0
27/05:15am 2.0 -0.1 1.9 99 0.0 SW 2 4 1 2 1022.7 - 1.0
27/05:00am 2.6 1.0 2.5 99 0.0 CALM 0 2 0 1 1022.3 - 1.0
27/04:30am 3.6 1.1 3.5 99 0.0 WSW 6 9 3 5 1022.3 - 1.0
27/04:00am 4.4 2.4 4.3 99 0.0 W 4 7 2 4 1022.3 - 1.0
27/03:30am 4.2 2.1 4.1 99 0.0 SW 4 7 2 4 1022.3 - 1.0
27/03:17am 4.1 1.6 4.0 99 0.0 SW 6 7 3 4 1022.3 - 1.0
27/03:00am 3.8 1.7 3.7 99 0.0 WNW 4 6 2 3 1022.3 1021.6 1.0
27/02:30am 2.8 0.9 2.7 99 0.0 W 2 4 1 2 1022.7 - 1.0
27/02:00am 1.8 -0.3 1.7 99 0.0 SW 2 6 1 3 1022.7 - 1.0
27/01:30am 3.3 1.5 3.2 99 0.0 NNE 2 6 1 3 1022.9 - 1.0
27/01:21am 3.0 1.5 2.9 99 0.0 CALM 0 6 0 3 1023.0 - 1.0
27/01:00am 4.9 2.6 4.8 99 0.0 SSW 6 9 3 5 1023.1 - 1.0
27/12:30am 5.3 2.9 5.2 99 0.0 SSW 7 9 4 5 1023.3 - 1.0
27/12:00am 5.5 2.7 5.2 98 0.1 SW 9 11 5 6 1023.3 1022.6 1.0
 
Date/Time
EDT
Temp
°C
App
Temp
°C
Dew
Point
Rel
Hum
%
Delta-T
°C
Wind Press
QNH
hPa
Press
MSL
hPa
Rain
since 9 am
mm
Dir
 
Spd
km/h
Gust
km/h
Spd
kts
Gust
kts
26/11:30pm 7.1 5.0 6.5 96 0.3 S 7 9 4 5 1023.5 - 1.0
26/11:00pm 7.7 5.4 7.3 97 0.2 SSE 9 13 5 7 1023.7 - 1.0
26/10:30pm 7.9 5.6 7.3 96 0.3 SSE 9 11 5 6 1023.7 - 1.0
26/10:00pm 8.0 6.0 7.2 95 0.4 S 7 11 4 6 1023.5 - 1.0
26/09:30pm 8.0 6.0 7.1 94 0.5 SSE 7 9 4 5 1023.2 - 1.0
26/09:00pm 8.3 6.4 7.5 95 0.4 S 7 11 4 6 1023.0 1022.3 1.0
26/08:30pm 8.5 6.7 8.1 97 0.2 SSE 7 11 4 6 1022.8 - 1.0
26/08:00pm 8.7 7.0 8.3 97 0.2 S 7 11 4 6 1022.7 - 1.0
26/07:30pm 8.7 6.2 8.3 97 0.2 S 11 19 6 10 1022.4 - 1.0
26/07:00pm 9.2 6.5 8.9 98 0.2 S 13 20 7 11 1022.0 - 1.0
26/06:30pm 9.3 6.7 9.2 99 0.1 S 13 20 7 11 1021.5 - 0.8
26/06:00pm 9.9 6.7 8.5 91 0.7 SSE 15 20 8 11 1021.2 1020.4 0.0
26/05:30pm 11.0 7.9 8.8 86 1.2 S 15 22 8 12 1021.1 - 0.0
26/05:00pm 12.1 8.9 8.4 78 2.0 S 15 22 8 12 1020.8 - 0.0
26/04:30pm 12.3 9.3 7.6 73 2.5 S 13 20 7 11 1021.0 - 0.0
26/04:00pm 13.7 10.8 6.3 61 3.8 S 11 19 6 10 1020.7 - 0.0
26/03:30pm 14.5 11.1 4.2 50 5.1 SW 11 17 6 9 1020.5 - 0.0
26/03:00pm 15.5 11.5 3.0 43 6.1 SW 13 19 7 10 1020.4 1019.6 0.0
26/02:30pm 16.9 12.4 6.1 49 5.6 WSW 19 24 10 13 1020.4 - 0.0
26/02:00pm 15.4 12.2 2.9 43 6.1 N 9 15 5 8 1020.5 - 0.0
26/01:30pm 15.5 11.2 3.3 44 6.0 W 15 24 8 13 1020.7 - 0.0
26/01:00pm 15.5 12.2 4.5 48 5.5 WNW 11 22 6 12 1021.0 - 0.0
26/12:30pm 15.4 11.7 4.2 47 5.6 W 13 20 7 11 1021.0 - 0.0
26/12:00pm 15.9 11.7 3.7 44 6.0 W 15 24 8 13 1021.0 1020.2 0.0
26/11:30am 14.6 9.6 3.7 48 5.3 SSW 19 26 10 14 1020.8 - 0.0
26/11:00am 13.8 8.8 3.6 50 5.0 W 19 24 10 13 1020.6 - 0.0
26/10:30am 13.2 10.3 4.4 55 4.3 N 9 19 5 10 1020.7 - 0.0
26/10:00am 12.7 8.4 3.1 52 4.6 W 15 22 8 12 1020.7 - 0.0
26/09:30am 11.8 7.5 3.1 55 4.1 W 15 28 8 15 1020.8 - 0.0
26/09:00am 11.8 8.3 3.6 57 3.9 W 11 19 6 10 1020.7 1019.9 0.0
26/08:30am 10.7 5.8 2.0 55 4.0 W 17 35 9 19 1020.7 - 0.0
26/08:00am 10.1 5.4 2.9 61 3.4 NW 17 30 9 16 1020.3 - 0.0
26/07:30am 9.0 5.7 2.6 64 2.9 WNW 9 20 5 11 1020.3 - 0.0
26/07:00am 7.6 5.3 2.5 70 2.3 NNE 4 7 2 4 1020.1 - 0.0
26/06:30am 6.0 3.1 1.5 73 2.0 N 6 9 3 5 1020.1 - 0.0
26/06:00am 6.2 3.1 1.3 71 2.1 NNE 7 13 4 7 1019.8 1019.0 0.0
26/05:30am 4.1 1.5 1.1 81 1.3 NNW 4 9 2 5 1019.6 - 0.0
26/05:00am 4.5 1.9 1.2 79 1.4 N 4 7 2 4 1019.4 - 0.0
26/04:30am 3.8 1.3 1.4 84 1.0 NNE 4 7 2 4 1019.3 - 0.0
26/04:00am 2.5 -0.2 0.4 86 0.9 NNW 4 7 2 4 1019.4 - 0.0
26/03:30am 2.9 0.3 0.8 86 0.9 NNW 4 6 2 3 1019.5 - 0.0
26/03:00am 3.1 0.9 1.2 87 0.8 WNW 2 6 1 3 1019.6 1018.8 0.0
26/02:30am 2.9 0.7 0.8 86 0.9 NW 2 7 1 4 1019.9 - 0.0
26/02:00am 3.5 1.3 1.1 84 1.0 WNW 2 4 1 2 1020.3 - 0.0
26/01:30am 3.6 1.4 1.2 84 1.0 WNW 2 7 1 4 1020.5 - 0.0
26/01:00am 3.0 0.2 -0.3 79 1.3 NNW 4 6 2 3 1020.8 - 0.0
26/12:30am 3.0 0.6 -0.3 79 1.3 NW 2 4 1 2 1021.1 - 0.0
26/12:00am 4.6 2.0 0.7 76 1.6 WNW 4 6 2 3 1021.4 1020.6 0.0
 
Date/Time
EDT
Temp
°C
App
Temp
°C
Dew
Point
Rel
Hum
%
Delta-T
°C
Wind Press
QNH
hPa
Press
MSL
hPa
Rain
since 9 am
mm
Dir
 
Spd
km/h
Gust
km/h
Spd
kts
Gust
kts
25/11:30pm 4.4 1.4 0.9 78 1.5 WNW 6 9 3 5 1021.5 - 0.0
25/11:00pm 4.9 -0.2 0.5 73 1.8 WNW 17 20 9 11 1021.6 - 0.0
25/10:30pm 6.3 1.2 1.0 69 2.3 WNW 17 20 9 11 1021.6 - 0.0
25/10:00pm 6.4 1.4 1.3 70 2.2 WNW 17 22 9 12 1021.5 - 0.0
25/09:30pm 7.3 2.3 1.6 67 2.5 W 17 24 9 13 1021.2 - 0.0
25/09:00pm 7.3 2.4 1.8 68 2.4 W 17 26 9 14 1021.0 1020.2 0.0
25/08:30pm 7.9 3.0 2.0 66 2.6 W 17 22 9 12 1020.8 - 0.0
25/08:00pm 8.6 4.1 2.2 64 2.9 WNW 15 20 8 11 1020.7 - 0.0
25/07:30pm 10.4 5.9 2.0 56 3.8 WNW 15 19 8 10 1020.3 - 0.0
25/07:00pm 11.8 7.2 1.7 50 4.6 W 15 20 8 11 1019.9 - 0.0
25/06:30pm 12.4 8.2 1.7 48 4.9 W 13 24 7 13 1019.5 - 0.0
25/06:00pm 13.2 8.7 2.1 47 5.2 WNW 15 26 8 14 1019.1 1018.3 0.0
25/05:30pm 13.7 9.5 1.7 44 5.6 WNW 13 20 7 11 1019.0 - 0.0
25/05:00pm 13.9 8.4 1.9 44 5.6 WNW 20 28 11 15 1018.6 - 0.0
25/04:30pm 14.9 11.0 3.4 46 5.6 W 13 22 7 12 1018.7 - 0.0
25/04:00pm 14.0 9.2 2.6 46 5.4 W 17 26 9 14 1018.6 - 0.0
25/03:30pm 14.7 9.9 2.6 44 5.8 W 17 26 9 14 1018.5 - 0.0
25/03:00pm 14.1 10.3 1.7 43 5.8 WNW 11 22 6 12 1018.2 1017.4 0.0
25/02:30pm 13.4 10.1 2.6 48 5.1 SW 9 20 5 11 1018.2 - 0.0
25/02:00pm 13.7 9.8 3.5 50 4.9 WSW 13 30 7 16 1018.1 - 0.0
25/01:30pm 13.1 9.6 5.3 59 3.9 SW 13 20 7 11 1018.2 - 0.0
25/01:00pm 11.2 6.5 1.2 50 4.5 W 15 24 8 13 1018.5 - 0.0
25/12:30pm 11.0 6.1 1.8 53 4.2 SW 17 24 9 13 1018.4 - 0.0
25/12:00pm 10.5 6.7 1.9 55 3.9 NW 11 24 6 13 1018.6 1017.7 0.0
25/11:30am 9.2 4.5 0.9 56 3.7 WNW 15 33 8 18 1018.2 - 0.0
25/11:00am 10.2 5.4 2.8 60 3.4 W 17 24 9 13 1018.0 - 0.0
25/10:30am 9.9 5.5 2.5 60 3.4 WSW 15 30 8 16 1017.7 - 0.0
25/10:00am 9.0 5.3 -0.3 52 4.0 W 9 19 5 10 1017.3 - 0.0
25/09:30am 8.5 3.4 0.5 57 3.5 WNW 17 26 9 14 1016.9 - 0.0
25/09:00am 7.5 2.2 -0.7 56 3.4 W 17 28 9 15 1016.4 1015.5 23.2
25/08:30am 6.7 2.5 -1.0 58 3.2 W 11 24 6 13 1015.7 - 23.2
25/08:00am 5.7 0.7 -1.0 62 2.7 W 15 24 8 13 1015.4 - 23.2
25/07:30am 4.5 -0.1 -1.1 67 2.3 W 13 24 7 13 1015.2 - 23.2
25/07:00am 3.3 -1.0 -1.6 70 1.9 WNW 11 19 6 10 1014.7 - 23.2
25/06:30am 2.6 -1.4 -2.1 71 1.8 W 9 19 5 10 1014.6 - 23.2
25/06:00am 2.2 -1.8 -1.9 74 1.6 W 9 17 5 9 1014.3 1013.3 23.2
25/05:30am 2.4 -1.2 -1.9 73 1.7 W 7 15 4 8 1013.7 - 23.2
25/05:00am 3.0 0.1 1.5 90 0.6 W 6 15 3 8 1013.2 - 23.2
25/04:30am 2.6 -0.4 1.0 89 0.7 W 6 11 3 6 1012.9 - 23.2
25/04:00am 4.4 0.1 1.3 80 1.3 W 13 20 7 11 1012.6 - 23.2
25/03:30am 5.0 1.2 1.8 80 1.4 WNW 11 19 6 10 1012.3 - 23.2
25/03:00am 4.9 1.1 1.6 79 1.4 W 11 19 6 10 1011.9 1010.8 23.2
25/02:30am 5.9 1.9 2.7 80 1.4 WNW 13 22 7 12 1011.8 - 23.2
25/02:00am 6.7 2.4 3.5 80 1.5 W 15 22 8 12 1011.8 - 23.2
25/01:39am 5.4 2.1 4.7 95 0.3 WNW 11 15 6 8 1012.0 - 23.2
25/01:30am 6.4 3.5 6.3 99 0.0 WNW 11 17 6 9 1011.8 - 23.2
25/01:00am 7.9 6.3 7.8 99 0.1 SSW 6 9 3 5 1011.9 - 23.2
25/12:33am 8.4 6.7 8.3 99 0.1 SSW 7 11 4 6 1012.0 - 23.2
25/12:30am 8.4 6.3 8.3 99 0.1 SSW 9 11 5 6 1012.1 - 23.2
25/12:00am 9.0 7.1 8.9 99 0.1 SW 9 17 5 9 1012.2 1011.2 23.2
 
Date/Time
EDT
Temp
°C
App
Temp
°C
Dew
Point
Rel
Hum
%
Delta-T
°C
Wind Press
QNH
hPa
Press
MSL
hPa
Rain
since 9 am
mm
Dir
 
Spd
km/h
Gust
km/h
Spd
kts
Gust
kts
24/11:30pm 10.6 8.7 10.4 99 0.1 W 11 19 6 10 1012.2 - 23.2
24/11:28pm 11.6 10.0 11.4 99 0.1 W 11 19 6 10 1012.2 - 23.2
24/11:00pm 11.7 11.0 11.5 99 0.1 ESE 6 7 3 4 1011.7 - 23.2
24/10:30pm 11.6 11.3 11.4 99 0.1 SSE 4 6 2 3 1012.1 - 23.2
24/10:25pm 11.7 11.4 11.5 99 0.1 SSE 4 6 2 3 1012.1 - 23.2
24/10:00pm 12.2 11.1 12.0 99 0.1 NW 9 13 5 7 1011.7 - 23.2
24/09:30pm 11.5 10.2 11.3 99 0.1 WNW 9 13 5 7 1011.9 - 23.2
24/09:14pm 11.7 10.8 11.5 99 0.1 WSW 7 11 4 6 1011.4 - 23.2
24/09:00pm 11.7 10.1 11.5 99 0.1 N 11 17 6 9 1011.2 1010.1 23.0
24/08:56pm 11.8 9.8 11.6 99 0.1 N 13 17 7 9 1010.8 - 22.8
24/08:30pm 12.2 10.4 12.0 99 0.1 WNW 13 24 7 13 1011.3 - 20.2
24/08:17pm 12.2 10.0 12.0 99 0.1 WNW 15 22 8 12 1011.2 - 19.4
24/08:00pm 12.3 10.9 12.1 99 0.1 WNW 11 22 6 12 1011.2 - 17.8
24/07:57pm 12.3 10.9 12.1 99 0.1 WNW 11 20 6 11 1011.1 - 17.0
24/07:30pm 13.2 11.9 12.4 95 0.5 WNW 11 20 6 11 1010.3 - 13.8
24/07:00pm 12.3 8.9 11.2 93 0.6 WNW 20 28 11 15 1009.3 - 13.2
24/06:38pm 12.0 7.0 11.1 94 0.5 NW 28 44 15 24 1009.5 - 12.8
24/06:31pm 11.8 6.7 10.7 93 0.6 WNW 28 46 15 25 1010.2 - 12.2
24/06:30pm 11.9 6.5 10.8 93 0.6 WNW 30 46 16 25 1010.3 - 12.2
24/06:23pm 11.9 6.9 11.0 94 0.5 WNW 28 46 15 25 1010.4 - 11.0
24/06:01pm 11.8 7.1 10.7 93 0.6 WNW 26 39 14 21 1011.1 - 7.6
24/06:00pm 11.8 7.1 10.7 93 0.6 WNW 26 39 14 21 1011.1 1010.0 7.4
24/05:44pm 12.2 6.4 10.9 92 0.7 WNW 32 50 17 27 1011.3 - 4.8
24/05:30pm 12.8 3.4 11.5 92 0.7 WNW 52 78 28 42 1011.5 - 3.4
24/05:26pm 13.2 2.7 10.9 86 1.3 WNW 57 78 31 42 1011.5 - 3.0
24/05:25pm 13.4 6.8 11.3 87 1.2 WNW 37 78 20 42 1011.7 - 3.0
24/05:19pm 13.8 7.9 12.4 91 0.8 WNW 35 56 19 30 1012.0 - 2.4
24/05:18pm 14.1 8.6 12.3 89 1.0 WNW 33 48 18 26 1012.2 - 1.6
24/05:00pm 16.4 12.3 11.3 72 2.9 NNW 24 44 13 24 1010.8 - 0.0
24/04:30pm 16.4 11.9 11.3 72 2.9 NW 26 43 14 23 1011.1 - 0.0

Other Formats:

Comma delimited format used in spreadsheet applications
http://www.bom.gov.au/fwo/IDV60801/IDV60801.94905.axf

JavaScript Object Notation format (JSON) in row-major order
http://www.bom.gov.au/fwo/IDV60801/IDV60801.94905.json